Aeroporto :
LOGIN :

Iscrizione | Disclaimer

   EN    FR    IT 

 










Sommario :    VFR   VFR Marginale   IFR   IFR Intensivo   IFR Molto Intensivo
Visibilità : 
Base nubi : 
>= 8 km
>= 3000ft
5 / 8 km
1000 / 3000 ft
1500m / 5 km
500 / 1000 ft
800 / 1500m
200 / 500 ft
< 800m
< 200 ft
Simboli :   Temporali  Nebbia  Neve Forte  Precipitazioni Forti  Vento > 20 kt
SIGMETs :   Varie  Temporali  Ghiacco  Turbolenza  Onda orograficha  Ceneri Vulcaniche






- Altitudine del aeroporto : 364 ft
- Codice IATA : FRA


EDDF - Frankfurt Int.

ULTIMO METAR :
  • 231450Z 10005KT 080V140 9999 FEW020 BKN030 07/02 Q1035 NOSIG

METARs OBSOLETI :
  • 231420Z VRB01KT 9999 FEW020 BKN030 07/02 Q1035 NOSIG
  • 231350Z VRB01KT 9999 FEW020 BKN033 07/02 Q1035 NOSIG
  • 231320Z VRB02KT 9999 FEW020 BKN033 07/02 Q1035 NOSIG
  • 231250Z VRB01KT 9999 FEW020 BKN033 07/02 Q1035 NOSIG
  • 231220Z 27003KT 240V300 9999 FEW017 BKN031 07/03 Q1035 NOSIG

TAF TAF EDDF
Valido dal 23 a 12 ore il 24 a 18 ore UTC


231100Z 2312/2418 02004KT 9999 BKN035
TEMPO 2313/2321 SCT030
PROB30
TEMPO 2402/2410 1500 BCFG BKN003
BECMG 2410/2413 SCT030



MetMap, La meteo Aeronautica in un colpo d'occhio ! - Copyright ORBIFLY Dicembre 2007 - Disclaimer

ORBIFLY MET'MAP TEAM :

Programmazione e sviluppo : Alexandra Zaïnal
Concezione : Baudouin d'Aumeries
Aiuto per la programmazione : Marc-Olivier Méhu
Supporto tecnico e logistico : Manuel Goepfert
Aiuto per la traduzione : Arnaldo La Scala

Contatto : metmap@orbifly.com




FONTI E CREDITI :

   NOAA